Time;durP1;ratioP1;P1;durP2;ratioP2;P2;SDS_P1;SDS_P2;PMS_P1;PMS_P2;Temp;Humidity;BMP_temperature;BMP_pressure;BME280_temperature;BME280_humidity;BME280_pressure;Samples;Min_cycle;Max_cycle;Signal;HPM_P1;HPM_P2
2021/09/03 00:04:43;;;;;;;20.00;12.60;;;;;;;15.19;68.62;99694.76;234192;1198;138901;-59
2021/09/03 00:09:45;;;;;;;18.60;12.30;;;;;;;15.16;68.58;99688.91;233950;1201;140033;-61
2021/09/03 00:14:49;;;;;;;19.60;12.30;;;;;;;15.12;68.53;99685.57;233879;1200;139482;-62
2021/09/03 00:19:52;;;;;;;23.70;13.20;;;;;;;15.11;68.72;99687.77;234078;1198;139181;-60
2021/09/03 00:24:55;;;;;;;21.90;14.30;;;;;;;15.11;68.86;99684.59;234158;1199;139678;-60
2021/09/03 00:29:58;;;;;;;20.80;12.40;;;;;;;15.08;68.72;99682.08;234052;1199;139519;-61
2021/09/03 00:35:02;;;;;;;24.80;12.30;;;;;;;15.02;68.69;99682.38;234078;1199;142018;-60
2021/09/03 00:40:07;;;;;;;20.70;13.10;;;;;;;14.98;68.84;99685.34;234195;1198;140211;-62
2021/09/03 00:45:10;;;;;;;27.70;13.80;;;;;;;14.95;68.79;99682.52;234032;1199;138940;-61
2021/09/03 00:50:13;;;;;;;27.30;15.10;;;;;;;14.93;69.03;99677.27;234068;1199;139888;-66
2021/09/03 00:55:17;;;;;;;25.00;14.20;;;;;;;14.93;69.07;99674.42;233538;1201;140036;-60
2021/09/03 01:00:21;;;;;;;25.00;14.20;;;;;;;14.91;69.05;99674.21;234020;1199;140177;-62
2021/09/03 01:05:25;;;;;;;25.20;13.60;;;;;;;14.89;69.18;99669.17;233841;1199;144999;-61
2021/09/03 01:10:28;;;;;;;24.20;13.40;;;;;;;14.90;69.12;99672.26;234128;1198;139266;-62
2021/09/03 01:15:31;;;;;;;22.50;14.60;;;;;;;14.88;68.94;99668.82;234265;1198;139857;-61
2021/09/03 01:20:34;;;;;;;26.60;14.50;;;;;;;14.81;68.95;99660.04;234067;1199;138906;-59
2021/09/03 01:25:37;;;;;;;27.50;14.70;;;;;;;14.75;69.04;99662.81;234055;1199;138934;-61
2021/09/03 01:30:40;;;;;;;25.60;14.80;;;;;;;14.68;69.17;99656.15;234029;1200;139679;-61
2021/09/03 01:35:43;;;;;;;27.80;14.50;;;;;;;14.63;69.31;99649.66;233838;1200;140369;-63
2021/09/03 01:40:46;;;;;;;25.80;14.70;;;;;;;14.65;69.33;99654.17;233670;1200;139393;-60
2021/09/03 01:45:49;;;;;;;26.20;14.30;;;;;;;14.66;69.52;99650.20;233908;1200;139933;-62
2021/09/03 01:50:52;;;;;;;24.70;14.30;;;;;;;14.65;69.55;99640.10;233738;1200;139046;-62
2021/09/03 01:55:56;;;;;;;25.10;14.50;;;;;;;14.61;69.59;99636.80;234029;1199;140035;-60
2021/09/03 02:00:59;;;;;;;23.70;14.80;;;;;;;14.60;69.57;99631.52;233951;1199;139906;-59
2021/09/03 02:06:02;;;;;;;24.80;14.90;;;;;;;14.61;69.75;99624.49;233971;1199;139660;-61
2021/09/03 02:11:05;;;;;;;28.10;14.70;;;;;;;14.57;69.77;99617.98;233917;1199;139432;-64
2021/09/03 02:16:08;;;;;;;27.20;15.20;;;;;;;14.56;69.88;99616.65;234166;1200;141224;-63
2021/09/03 02:21:11;;;;;;;26.70;14.80;;;;;;;14.54;69.81;99604.99;233791;1199;139544;-61
2021/09/03 02:26:14;;;;;;;29.20;15.60;;;;;;;14.53;69.88;99602.70;234127;1195;142632;-59
2021/09/03 02:31:18;;;;;;;25.50;15.10;;;;;;;14.53;70.01;99601.27;233742;1199;139397;-61
2021/09/03 02:36:21;;;;;;;27.90;16.20;;;;;;;14.53;70.22;99599.85;233849;1199;140906;-62
2021/09/03 02:41:24;;;;;;;29.40;16.20;;;;;;;14.49;70.04;99589.58;234107;1199;139416;-60
2021/09/03 02:46:27;;;;;;;26.00;15.80;;;;;;;14.43;69.97;99584.61;234104;1198;139582;-57
2021/09/03 02:51:30;;;;;;;22.80;15.30;;;;;;;14.40;70.01;99583.56;233970;1198;139769;-61
2021/09/03 02:56:34;;;;;;;24.90;15.70;;;;;;;14.35;70.09;99582.46;234093;1199;139082;-60
2021/09/03 03:01:36;;;;;;;28.20;16.20;;;;;;;14.38;70.36;99579.77;234019;1199;140861;-65
2021/09/03 03:06:41;;;;;;;27.60;15.70;;;;;;;14.38;70.38;99581.22;234055;1198;141602;-60
2021/09/03 03:11:44;;;;;;;24.50;15.90;;;;;;;14.35;70.36;99574.80;234084;1199;140445;-59
2021/09/03 03:16:47;;;;;;;26.70;14.60;;;;;;;14.30;70.21;99575.56;233588;1199;138512;-61
2021/09/03 03:21:50;;;;;;;31.60;14.80;;;;;;;14.26;70.33;99572.80;234162;1198;140349;-60
2021/09/03 03:26:55;;;;;;;27.50;14.50;;;;;;;14.29;70.54;99570.04;234080;1199;139992;-61
2021/09/03 03:32:00;;;;;;;27.40;15.20;;;;;;;14.30;70.50;99568.71;233983;1198;138717;-62
2021/09/03 03:37:03;;;;;;;25.90;14.60;;;;;;;14.31;70.60;99571.20;234085;1198;138900;-61
2021/09/03 03:42:06;;;;;;;28.70;14.30;;;;;;;14.28;70.40;99567.48;234129;1198;138953;-64
2021/09/03 03:47:09;;;;;;;16.80;9.60;;;;;;;14.24;70.65;99565.92;234044;1199;139530;-64
2021/09/03 03:52:12;;;;;;;35.10;22.10;;;;;;;14.41;71.36;99562.65;234240;1199;139513;-63
2021/09/03 03:57:15;;;;;;;23.80;15.30;;;;;;;14.53;71.09;99560.61;233935;1198;139639;-71
2021/09/03 04:02:18;;;;;;;99.90;64.60;;;;;;;14.60;70.90;99561.89;233933;1199;138546;-61
2021/09/03 04:07:21;;;;;;;27.00;15.80;;;;;;;14.60;70.83;99565.39;234045;1199;140661;-62
2021/09/03 04:12:24;;;;;;;29.90;15.10;;;;;;;14.59;70.54;99567.13;233822;1199;139051;-62
2021/09/03 04:17:27;;;;;;;23.30;13.80;;;;;;;14.54;70.57;99562.13;233837;1199;139356;-65
2021/09/03 04:22:30;;;;;;;24.50;14.80;;;;;;;14.56;70.50;99556.09;234120;1198;139892;-61
2021/09/03 04:27:35;;;;;;;33.00;16.30;;;;;;;14.62;70.98;99556.77;234211;1199;138806;-63
2021/09/03 04:32:41;;;;;;;27.60;15.50;;;;;;;14.66;70.67;99555.57;234008;1199;139489;-62
2021/09/03 04:37:45;;;;;;;26.10;14.70;;;;;;;14.64;70.58;99552.52;233590;1200;139805;-64
2021/09/03 04:42:48;;;;;;;25.30;13.80;;;;;;;14.62;70.51;99547.29;234086;1199;139094;-64
2021/09/03 04:47:51;;;;;;;23.30;14.30;;;;;;;14.64;70.72;99549.96;233754;1199;139731;-60
2021/09/03 04:52:54;;;;;;;26.70;14.40;;;;;;;14.66;70.63;99555.77;234032;1199;138869;-60
2021/09/03 04:57:58;;;;;;;27.00;14.10;;;;;;;14.65;70.63;99557.20;234240;1198;139277;-60
2021/09/03 05:03:01;;;;;;;22.50;13.70;;;;;;;14.67;70.66;99556.19;234096;1198;139152;-61
2021/09/03 05:08:07;;;;;;;23.00;12.90;;;;;;;14.69;70.54;99547.29;234011;1200;140077;-59
2021/09/03 05:13:10;;;;;;;23.10;14.10;;;;;;;14.72;70.55;99547.66;233897;1199;140338;-60
2021/09/03 05:18:13;;;;;;;23.30;13.80;;;;;;;14.70;70.44;99543.69;234012;1199;138925;-60
2021/09/03 05:23:16;;;;;;;25.20;15.20;;;;;;;14.70;70.50;99539.20;233753;1198;139045;-60
2021/09/03 05:28:19;;;;;;;26.20;13.70;;;;;;;14.73;70.74;99536.66;233809;1200;139120;-60
2021/09/03 05:33:22;;;;;;;21.50;12.80;;;;;;;14.76;70.64;99538.77;233899;1200;140481;-60
2021/09/03 05:38:26;;;;;;;25.30;13.30;;;;;;;14.79;70.62;99537.83;234056;1199;139392;-61
2021/09/03 05:43:29;;;;;;;28.40;14.20;;;;;;;14.87;70.75;99537.30;233976;1198;139152;-61
2021/09/03 05:48:32;;;;;;;22.10;13.40;;;;;;;14.88;70.63;99533.12;234094;1199;139050;-61
2021/09/03 05:53:35;;;;;;;27.00;12.90;;;;;;;14.90;70.65;99535.80;233862;1195;138764;-61
2021/09/03 05:58:38;;;;;;;26.30;13.10;;;;;;;14.93;70.64;99534.73;233764;1199;139514;-60
2021/09/03 06:03:41;;;;;;;26.60;14.00;;;;;;;14.94;70.57;99538.16;234166;1198;139242;-63
2021/09/03 06:08:48;;;;;;;27.80;14.60;;;;;;;14.97;70.64;99533.17;233905;1198;138846;-60
2021/09/03 06:13:52;;;;;;;24.40;14.40;;;;;;;15.02;70.64;99532.26;234022;1200;139309;-59
2021/09/03 06:18:56;;;;;;;23.50;12.70;;;;;;;15.08;70.83;99528.97;233778;1198;138881;-60
2021/09/03 06:23:59;;;;;;;21.00;11.90;;;;;;;15.20;70.91;99530.92;234051;1198;140025;-59
2021/09/03 06:29:02;;;;;;;22.60;12.60;;;;;;;15.31;70.80;99528.54;233718;1199;139803;-59
2021/09/03 06:34:05;;;;;;;18.60;12.00;;;;;;;15.40;70.66;99528.04;234174;1201;139481;-59
2021/09/03 06:39:08;;;;;;;24.60;12.10;;;;;;;15.45;70.96;99524.46;234071;1199;139609;-60
2021/09/03 06:44:11;;;;;;;25.50;10.90;;;;;;;15.57;70.94;99527.29;234083;1198;138937;-59
2021/09/03 06:49:15;;;;;;;21.60;10.00;;;;;;;15.68;71.00;99527.06;234112;1198;140054;-60
2021/09/03 06:54:18;;;;;;;22.60;10.10;;;;;;;15.83;70.95;99525.23;234055;1201;140590;-60
2021/09/03 06:59:21;;;;;;;20.80;11.80;;;;;;;15.96;70.77;99518.47;233991;1201;141203;-60
2021/09/03 07:04:24;;;;;;;19.40;9.30;;;;;;;16.06;70.73;99519.69;233949;1200;138782;-59
2021/09/03 07:09:27;;;;;;;14.70;9.20;;;;;;;16.12;70.35;99517.95;233763;1198;139518;-60
2021/09/03 07:14:30;;;;;;;21.50;8.60;;;;;;;16.20;70.56;99513.05;234055;1198;140152;-61
2021/09/03 07:19:34;;;;;;;17.30;8.30;;;;;;;16.32;70.51;99511.95;233840;1199;139201;-63
2021/09/03 07:24:37;;;;;;;17.20;8.80;;;;;;;16.45;70.49;99511.11;233592;1200;138982;-60
2021/09/03 07:29:42;;;;;;;20.60;9.00;;;;;;;16.58;70.49;99510.95;233740;1199;139119;-62
2021/09/03 07:34:44;;;;;;;15.10;8.30;;;;;;;16.69;70.26;99502.91;234107;1198;138972;-62
2021/09/03 07:39:47;;;;;;;14.10;7.40;;;;;;;16.79;70.17;99506.81;234107;1198;138930;-62
2021/09/03 07:44:51;;;;;;;15.50;7.70;;;;;;;16.91;69.98;99506.75;233987;1200;140282;-63
2021/09/03 07:49:54;;;;;;;17.30;7.50;;;;;;;17.04;69.75;99504.64;234061;1198;138493;-61
2021/09/03 07:54:58;;;;;;;16.30;7.50;;;;;;;17.16;69.47;99503.27;233951;1198;138907;-61
2021/09/03 08:00:02;;;;;;;14.70;7.10;;;;;;;17.24;69.27;99498.66;233839;1201;139644;-62
2021/09/03 08:05:06;;;;;;;10.30;7.20;;;;;;;17.35;68.94;99499.39;234015;1199;140484;-62
2021/09/03 08:10:14;;;;;;;13.20;7.50;;;;;;;17.45;68.92;99494.25;234224;1201;140926;-61
2021/09/03 08:15:16;;;;;;;12.50;7.40;;;;;;;17.56;68.84;99488.46;233928;1201;139522;-62
2021/09/03 08:20:19;;;;;;;11.50;6.60;;;;;;;17.66;68.77;99483.13;234003;1200;139420;-61
2021/09/03 08:25:22;;;;;;;13.50;6.90;;;;;;;17.76;68.36;99476.97;233183;1200;138623;-64
2021/09/03 08:30:26;;;;;;;11.40;7.20;;;;;;;17.86;68.44;99475.54;233686;1201;140348;-65
2021/09/03 08:35:29;;;;;;;11.20;7.40;;;;;;;17.98;68.19;99473.08;233888;1199;139825;-60
2021/09/03 08:40:34;;;;;;;12.50;6.30;;;;;;;18.10;67.95;99466.09;234012;1199;139824;-62
2021/09/03 08:45:37;;;;;;;12.90;7.40;;;;;;;18.23;68.01;99466.11;234090;1201;139749;-62
2021/09/03 08:50:40;;;;;;;12.20;7.20;;;;;;;18.34;67.74;99460.47;234030;1199;138089;-61
2021/09/03 08:55:47;;;;;;;10.40;6.40;;;;;;;18.41;67.49;99461.25;234014;1201;138440;-62
2021/09/03 09:01:15;;;;;;;211.90;145.00;;;;;;;18.52;67.35;99457.12;233953;1200;139454;-62
2021/09/03 09:06:22;;;;;;;12.00;7.60;;;;;;;18.68;67.21;99449.62;233907;1200;139173;-62
2021/09/03 09:11:30;;;;;;;14.00;7.30;;;;;;;18.81;66.89;99449.16;233901;1201;139454;-63
2021/09/03 09:16:33;;;;;;;10.10;6.30;;;;;;;18.91;66.66;99443.18;233814;1198;138320;-61
2021/09/03 09:21:39;;;;;;;9.60;6.00;;;;;;;18.98;66.41;99439.85;233947;1201;138561;-61
2021/09/03 09:26:48;;;;;;;12.50;6.40;;;;;;;19.07;66.13;99439.44;233567;1200;141934;-60
2021/09/03 09:31:54;;;;;;;9.90;4.80;;;;;;;19.10;65.79;99434.07;233690;1200;138563;-61
2021/09/03 09:37:01;;;;;;;12.10;6.00;;;;;;;19.16;65.68;99432.29;234004;1198;139397;-61
2021/09/03 09:42:04;;;;;;;7.50;5.70;;;;;;;19.22;65.41;99431.41;233842;1201;139498;-60
2021/09/03 09:47:12;;;;;;;8.70;5.70;;;;;;;19.26;65.16;99427.67;233642;1201;138239;-61
2021/09/03 09:52:15;;;;;;;9.50;5.60;;;;;;;19.30;65.03;99421.88;233888;1198;139711;-59
2021/09/03 09:57:18;;;;;;;10.70;5.60;;;;;;;19.26;64.77;99419.55;233992;1200;139215;-61
2021/09/03 10:02:22;;;;;;;50.50;38.10;;;;;;;19.31;64.49;99411.51;234029;1199;138875;-62
2021/09/03 10:07:26;;;;;;;14.00;8.10;;;;;;;19.31;64.37;99412.59;233980;1200;139694;-62
2021/09/03 10:12:30;;;;;;;12.90;6.50;;;;;;;19.28;64.21;99413.90;234102;1198;138795;-61
2021/09/03 10:17:34;;;;;;;11.00;6.20;;;;;;;19.29;64.20;99414.89;234152;1199;139408;-61
2021/09/03 10:22:46;;;;;;;12.40;6.30;;;;;;;19.40;64.00;99407.77;234183;1199;139322;-61
2021/09/03 10:28:05;;;;;;;8.50;5.40;;;;;;;19.48;63.68;99405.05;234078;1200;138975;-61
2021/09/03 10:33:12;;;;;;;8.80;5.80;;;;;;;19.65;63.41;99399.35;234122;1198;138090;-61
2021/09/03 10:38:30;;;;;;;8.20;5.50;;;;;;;19.81;63.06;99386.13;233901;1198;138295;-61
2021/09/03 10:43:46;;;;;;;9.70;5.70;;;;;;;20.01;62.90;99374.89;234175;1198;138607;-61
2021/09/03 10:48:51;;;;;;;8.30;4.80;;;;;;;20.17;62.45;99370.96;234098;1201;138861;-61
2021/09/03 10:53:55;;;;;;;11.00;5.80;;;;;;;20.26;62.08;99358.51;234091;1199;139126;-61
2021/09/03 10:59:05;;;;;;;8.90;5.40;;;;;;;20.42;61.92;99354.19;234123;1199;139463;-61
2021/09/03 11:04:12;;;;;;;8.30;5.20;;;;;;;20.57;61.57;99347.81;234154;1199;137991;-61
2021/09/03 11:09:15;;;;;;;10.20;5.90;;;;;;;20.73;61.06;99341.76;234025;1199;138659;-60
2021/09/03 11:14:29;;;;;;;11.70;5.80;;;;;;;20.80;60.81;99333.27;233987;1200;139605;-61
2021/09/03 11:19:34;;;;;;;8.40;5.20;;;;;;;20.93;60.72;99336.52;234082;1201;139642;-61
2021/09/03 11:24:47;;;;;;;7.80;5.70;;;;;;;20.98;60.45;99324.03;234046;1199;139777;-62
2021/09/03 11:29:55;;;;;;;6.30;5.00;;;;;;;21.10;60.27;99321.26;234025;1200;138169;-61
2021/09/03 11:35:00;;;;;;;8.90;6.30;;;;;;;21.18;59.92;99318.77;233839;1201;140990;-62
2021/09/03 11:40:06;;;;;;;9.70;5.30;;;;;;;21.29;59.66;99318.20;234186;1199;139714;-62
2021/09/03 11:45:14;;;;;;;8.90;6.00;;;;;;;21.38;59.32;99320.02;234135;1199;139758;-61
2021/09/03 11:50:25;;;;;;;12.20;6.40;;;;;;;21.29;58.96;99316.05;234106;1198;138920;-62
2021/09/03 11:55:33;;;;;;;8.90;5.70;;;;;;;21.14;59.01;99308.54;234037;1199;138827;-61
2021/09/03 12:00:42;;;;;;;7.50;5.60;;;;;;;21.12;59.29;99309.70;234038;1200;140397;-61
2021/09/03 12:05:54;;;;;;;8.90;5.10;;;;;;;21.22;59.06;99300.58;234009;1200;138128;-62
2021/09/03 12:11:08;;;;;;;8.80;5.60;;;;;;;21.40;58.84;99297.44;234162;1199;139498;-60
2021/09/03 12:16:15;;;;;;;11.30;5.90;;;;;;;21.35;58.43;99303.89;234132;1198;139349;-62
2021/09/03 12:21:24;;;;;;;9.50;5.20;;;;;;;21.24;58.29;99301.90;234086;1198;138582;-61
2021/09/03 12:26:48;;;;;;;8.40;5.10;;;;;;;21.48;58.70;99293.23;234074;1199;138757;-62
2021/09/03 12:31:59;;;;;;;6.80;4.90;;;;;;;21.87;58.63;99283.88;234159;1199;138811;-61
2021/09/03 12:37:05;;;;;;;8.20;5.00;;;;;;;22.16;57.90;99279.41;234149;1199;141255;-62
2021/09/03 12:42:16;;;;;;;10.60;5.10;;;;;;;22.32;57.72;99276.21;234116;1199;140639;-63
2021/09/03 12:47:20;;;;;;;7.10;5.00;;;;;;;22.35;57.16;99273.59;234193;1199;139271;-62
2021/09/03 12:52:25;;;;;;;10.00;6.10;;;;;;;22.29;56.75;99272.73;234233;1200;138444;-62
2021/09/03 12:57:28;;;;;;;11.90;4.80;;;;;;;22.51;56.78;99257.80;234173;1198;138530;-63
2021/09/03 13:02:32;;;;;;;11.10;4.80;;;;;;;22.89;56.50;99251.79;234159;1198;138654;-61
2021/09/03 13:07:35;;;;;;;6.90;4.90;;;;;;;23.17;55.62;99243.13;234011;1200;139538;-62
2021/09/03 13:12:40;;;;;;;7.30;5.00;;;;;;;23.36;55.33;99222.83;234007;1201;138973;-62
2021/09/03 13:17:43;;;;;;;6.00;4.50;;;;;;;23.67;54.80;99222.05;234117;1198;138836;-62
2021/09/03 13:22:46;;;;;;;5.70;4.30;;;;;;;23.95;54.50;99216.33;234268;1199;138573;-62
2021/09/03 13:27:49;;;;;;;5.50;4.30;;;;;;;24.19;53.96;99215.19;234145;1195;138404;-62
2021/09/03 13:32:52;;;;;;;9.20;5.30;;;;;;;24.36;53.15;99217.78;234134;1199;138156;-62
2021/09/03 13:37:55;;;;;;;8.70;4.60;;;;;;;24.51;53.03;99207.51;234103;1198;138564;-63
2021/09/03 13:42:58;;;;;;;9.70;4.40;;;;;;;24.70;52.57;99207.27;234125;1198;139387;-61
2021/09/03 13:48:01;;;;;;;7.40;4.70;;;;;;;24.88;52.46;99202.26;234016;1196;138627;-63
2021/09/03 13:53:06;;;;;;;6.60;4.50;;;;;;;25.07;52.11;99196.11;234251;1199;139480;-62
2021/09/03 13:58:09;;;;;;;10.30;4.70;;;;;;;25.09;51.53;99185.88;234135;1198;139025;-61
2021/09/03 14:03:12;;;;;;;6.40;5.10;;;;;;;25.14;50.89;99180.24;234007;1198;138625;-61
2021/09/03 14:08:15;;;;;;;8.30;5.00;;;;;;;25.01;50.36;99179.48;233880;1199;138262;-62
2021/09/03 14:13:19;;;;;;;7.40;5.00;;;;;;;24.74;50.24;99175.44;233876;1199;142032;-61
2021/09/03 14:18:22;;;;;;;7.80;4.50;;;;;;;24.42;50.23;99172.09;234033;1198;138132;-62
2021/09/03 14:23:26;;;;;;;5.90;4.80;;;;;;;24.17;50.56;99165.23;234044;1198;137896;-62
2021/09/03 14:28:29;;;;;;;7.40;4.30;;;;;;;23.89;50.56;99170.30;233931;1200;139890;-62
2021/09/03 14:33:32;;;;;;;8.10;4.60;;;;;;;23.63;50.52;99161.43;233992;1199;138505;-63
2021/09/03 14:38:35;;;;;;;12.90;4.60;;;;;;;23.43;50.67;99153.80;233846;1198;137967;-61
2021/09/03 14:43:38;;;;;;;7.20;4.90;;;;;;;23.24;50.83;99151.26;234111;1198;139503;-61
2021/09/03 14:48:41;;;;;;;12.10;5.30;;;;;;;23.08;51.21;99146.56;233964;1199;139102;-61
2021/09/03 14:53:44;;;;;;;6.80;5.00;;;;;;;22.92;51.42;99141.39;233806;1200;140700;-62
2021/09/03 14:58:47;;;;;;;10.70;4.80;;;;;;;22.78;51.50;99137.55;234072;1198;138214;-62
2021/09/03 15:03:50;;;;;;;11.50;6.20;;;;;;;22.64;51.62;99132.82;233923;1197;139061;-61
2021/09/03 15:08:54;;;;;;;8.30;5.00;;;;;;;22.50;51.73;99124.57;234012;1199;139600;-62
2021/09/03 15:13:57;;;;;;;9.70;5.70;;;;;;;22.37;51.81;99123.34;234034;1198;138929;-62
2021/09/03 15:19:00;;;;;;;9.40;4.80;;;;;;;22.25;51.94;99120.15;233862;1200;139511;-62
2021/09/03 15:24:03;;;;;;;6.80;4.90;;;;;;;22.13;52.20;99112.50;233961;1197;138665;-61
2021/09/03 15:29:06;;;;;;;10.10;6.20;;;;;;;22.04;52.37;99105.39;234082;1200;139324;-62
2021/09/03 15:34:10;;;;;;;6.60;4.70;;;;;;;21.95;52.29;99102.87;233945;1199;138940;-62
2021/09/03 15:39:13;;;;;;;8.30;4.60;;;;;;;21.87;52.38;99101.94;233899;1199;138925;-61
2021/09/03 15:44:17;;;;;;;7.70;4.50;;;;;;;21.80;52.35;99098.54;234080;1198;138735;-62
2021/09/03 15:49:20;;;;;;;5.70;4.10;;;;;;;21.74;52.42;99090.24;233955;1200;138604;-63
2021/09/03 15:54:26;;;;;;;9.30;4.20;;;;;;;21.66;52.59;99084.23;233205;1201;138878;-62
2021/09/03 15:59:33;;;;;;;8.60;4.80;;;;;;;21.59;52.63;99078.96;233967;1199;138612;-61
2021/09/03 16:04:37;;;;;;;8.80;6.00;;;;;;;21.55;52.86;99067.10;234235;1198;138161;-64
2021/09/03 16:09:40;;;;;;;10.70;4.70;;;;;;;21.53;52.93;99072.27;234047;1198;140400;-61
2021/09/03 16:14:43;;;;;;;8.20;4.40;;;;;;;21.52;52.99;99067.86;234080;1199;138810;-61
2021/09/03 16:19:46;;;;;;;9.90;4.70;;;;;;;21.50;53.15;99066.07;234010;1196;138633;-61
2021/09/03 16:24:49;;;;;;;7.10;4.90;;;;;;;21.45;53.11;99058.80;233718;1199;138638;-62
2021/09/03 16:29:52;;;;;;;9.80;4.80;;;;;;;21.39;53.31;99058.04;233996;1199;140514;-62
2021/09/03 16:34:55;;;;;;;11.60;6.80;;;;;;;21.33;53.36;99055.40;234143;1199;138993;-63
2021/09/03 16:39:59;;;;;;;8.20;5.10;;;;;;;21.28;53.36;99058.06;234021;1198;139287;-64
2021/09/03 16:45:03;;;;;;;10.40;4.90;;;;;;;21.23;53.42;99061.44;234002;1200;138563;-64
2021/09/03 16:50:08;;;;;;;9.10;5.00;;;;;;;21.18;53.50;99062.52;233993;1198;139089;-64
2021/09/03 16:55:12;;;;;;;9.70;4.70;;;;;;;21.14;53.71;99059.20;234066;1198;140063;-61
2021/09/03 17:00:15;;;;;;;9.30;4.70;;;;;;;21.09;53.71;99058.09;233982;1199;138885;-63
2021/09/03 17:05:18;;;;;;;140.50;102.10;;;;;;;21.03;53.80;99058.02;233611;1199;138682;-62
2021/09/03 17:10:22;;;;;;;13.10;9.60;;;;;;;20.98;53.96;99058.71;234117;1199;139280;-66
2021/09/03 17:15:25;;;;;;;15.80;6.20;;;;;;;20.94;54.01;99059.70;233992;1195;139531;-62
2021/09/03 17:20:28;;;;;;;11.40;5.10;;;;;;;20.87;54.21;99061.46;233304;1198;139505;-61
2021/09/03 17:25:32;;;;;;;6.90;4.70;;;;;;;20.82;54.39;99070.55;234015;1199;139711;-64
2021/09/03 17:30:36;;;;;;;11.70;6.60;;;;;;;20.73;54.39;99071.02;233630;1199;139274;-62
2021/09/03 17:35:40;;;;;;;8.80;5.40;;;;;;;20.66;54.64;99066.60;233887;1200;138744;-62
2021/09/03 17:40:43;;;;;;;9.90;5.60;;;;;;;20.59;54.83;99063.20;233794;1199;140877;-63
2021/09/03 17:45:46;;;;;;;9.90;5.20;;;;;;;20.52;55.08;99061.33;233910;1198;138616;-62
2021/09/03 17:50:49;;;;;;;8.40;5.00;;;;;;;20.47;55.10;99063.46;234000;1199;138894;-62
2021/09/03 17:55:52;;;;;;;9.50;5.70;;;;;;;20.43;55.30;99070.35;233968;1199;138122;-62
2021/09/03 18:00:56;;;;;;;42.00;26.50;;;;;;;20.39;55.45;99072.55;233904;1200;138498;-62
2021/09/03 18:05:59;;;;;;;12.70;7.70;;;;;;;20.35;55.48;99072.97;234142;1199;139667;-61
2021/09/03 18:11:03;;;;;;;11.30;7.70;;;;;;;20.30;55.78;99079.75;233981;1198;138645;-65
2021/09/03 18:16:06;;;;;;;13.10;8.10;;;;;;;20.26;55.94;99084.00;233810;1200;138808;-63
2021/09/03 18:21:09;;;;;;;16.40;8.50;;;;;;;20.22;56.20;99090.93;234085;1195;139148;-62
2021/09/03 18:26:12;;;;;;;14.20;8.30;;;;;;;20.16;56.39;99095.13;233552;1199;138607;-63
2021/09/03 18:31:15;;;;;;;13.50;8.60;;;;;;;20.08;56.60;99097.09;234010;1198;141186;-62
2021/09/03 18:36:19;;;;;;;12.70;8.30;;;;;;;20.03;56.82;99099.95;234009;1199;139960;-64
2021/09/03 18:41:22;;;;;;;13.80;8.60;;;;;;;19.99;56.98;99101.97;233906;1199;138412;-65
2021/09/03 18:46:26;;;;;;;13.70;8.60;;;;;;;19.95;57.25;99100.23;233974;1199;139598;-64
2021/09/03 18:51:29;;;;;;;17.60;8.40;;;;;;;19.91;57.22;99095.30;233812;1199;138887;-63
2021/09/03 18:56:32;;;;;;;17.70;8.50;;;;;;;19.87;57.46;99097.15;233727;1199;140165;-63
2021/09/03 19:01:35;;;;;;;15.30;8.70;;;;;;;19.82;57.59;99099.16;233946;1199;139444;-62
2021/09/03 19:06:39;;;;;;;13.50;8.20;;;;;;;19.78;57.60;99103.90;233828;1201;138594;-65
2021/09/03 19:11:42;;;;;;;17.40;8.50;;;;;;;19.73;57.80;99104.96;234023;1198;138110;-62
2021/09/03 19:16:46;;;;;;;14.50;8.50;;;;;;;19.68;57.99;99107.61;234211;1198;139370;-66
2021/09/03 19:21:51;;;;;;;346.10;239.90;;;;;;;19.63;58.04;99106.84;234047;1198;139518;-66
2021/09/03 19:26:54;;;;;;;22.40;15.10;;;;;;;19.57;58.20;99108.29;233965;1199;139625;-62
2021/09/03 19:31:58;;;;;;;17.00;10.60;;;;;;;19.53;58.38;99101.83;234043;1198;138968;-62
2021/09/03 19:37:01;;;;;;;19.00;11.20;;;;;;;19.52;58.67;99099.42;233925;1199;140320;-62
2021/09/03 19:42:05;;;;;;;13.30;8.30;;;;;;;19.55;58.81;99103.06;233971;1200;138909;-62
2021/09/03 19:47:08;;;;;;;20.80;10.70;;;;;;;19.54;58.86;99105.23;234108;1200;138536;-64
2021/09/03 19:52:11;;;;;;;14.90;8.80;;;;;;;19.50;58.90;99108.76;233967;1197;139848;-64
2021/09/03 19:57:14;;;;;;;448.50;360.90;;;;;;;19.45;58.99;99111.45;234078;1198;139261;-64
2021/09/03 20:02:17;;;;;;;29.40;21.10;;;;;;;19.44;59.30;99115.75;234002;1198;139247;-64
2021/09/03 20:07:24;;;;;;;25.50;15.90;;;;;;;19.40;59.30;99111.75;233795;1200;138758;-62
2021/09/03 20:12:27;;;;;;;18.80;11.70;;;;;;;19.30;59.02;99115.62;234072;1198;138933;-61
2021/09/03 20:17:30;;;;;;;17.40;10.90;;;;;;;19.05;58.71;99118.20;233941;1198;139598;-62
2021/09/03 20:22:33;;;;;;;18.00;11.00;;;;;;;18.82;58.98;99114.48;234189;1198;139293;-59
2021/09/03 20:27:36;;;;;;;18.30;10.50;;;;;;;18.63;59.17;99114.94;233833;1199;138936;-61
2021/09/03 20:32:39;;;;;;;12.40;9.30;;;;;;;18.46;59.45;99117.09;234021;1200;139725;-60
2021/09/03 20:37:42;;;;;;;16.40;9.70;;;;;;;18.37;59.54;99117.44;233784;1199;138949;-60
2021/09/03 20:42:48;;;;;;;17.90;10.10;;;;;;;18.33;59.90;99118.52;234092;1198;141661;-60
2021/09/03 20:47:52;;;;;;;15.00;9.50;;;;;;;18.27;60.00;99117.10;234098;1200;138861;-60
2021/09/03 20:52:55;;;;;;;15.10;10.00;;;;;;;18.20;60.07;99121.86;234189;1198;139842;-61
2021/09/03 20:57:58;;;;;;;16.00;10.00;;;;;;;18.13;60.33;99112.52;234079;1198;139384;-60
2021/09/03 21:03:01;;;;;;;17.00;10.30;;;;;;;18.03;60.39;99114.65;234049;1198;139853;-60
2021/09/03 21:08:06;;;;;;;;;;;;;;;17.91;60.56;99117.54;233830;1198;141006;-59
2021/09/03 21:13:10;;;;;;;14.30;9.40;;;;;;;17.79;60.68;99117.34;234144;1199;124417;-59
2021/09/03 21:18:13;;;;;;;15.60;9.80;;;;;;;17.69;60.87;99116.02;234087;1198;139912;-59
2021/09/03 21:23:16;;;;;;;17.60;9.50;;;;;;;17.66;61.18;99115.50;234110;1198;161799;-59
2021/09/03 21:28:19;;;;;;;14.10;9.00;;;;;;;17.63;61.28;99115.02;234186;1199;139630;-59
2021/09/03 21:33:22;;;;;;;15.60;9.50;;;;;;;17.59;61.44;99115.14;234033;1199;138764;-60
2021/09/03 21:38:25;;;;;;;14.40;10.30;;;;;;;17.55;61.57;99122.20;234010;1199;138930;-59
2021/09/03 21:43:29;;;;;;;20.90;10.40;;;;;;;17.50;61.57;99124.08;234092;1201;140020;-59
2021/09/03 21:48:32;;;;;;;18.00;10.30;;;;;;;17.43;61.77;99125.38;234130;1198;139056;-60
2021/09/03 21:53:35;;;;;;;15.80;10.00;;;;;;;17.38;61.89;99126.21;234083;1199;139304;-59
2021/09/03 21:58:38;;;;;;;15.60;9.80;;;;;;;17.28;61.92;99122.64;234244;1198;139186;-61
2021/09/03 22:03:42;;;;;;;18.30;10.30;;;;;;;17.22;62.13;99119.75;232971;1198;139474;-60
2021/09/03 22:08:46;;;;;;;17.90;10.50;;;;;;;17.20;62.33;99117.20;233650;1201;140011;-62
2021/09/03 22:13:49;;;;;;;16.70;10.70;;;;;;;17.19;62.41;99111.52;233629;1201;138934;-62
2021/09/03 22:18:57;;;;;;;20.60;11.70;;;;;;;17.14;62.47;99113.61;233290;1199;138396;-60
2021/09/03 22:24:01;;;;;;;20.80;11.70;;;;;;;17.10;62.72;99113.67;233907;1200;138937;-62
2021/09/03 22:29:04;;;;;;;19.30;11.70;;;;;;;17.03;62.73;99118.35;234050;1198;139687;-60
2021/09/03 22:34:08;;;;;;;18.50;11.30;;;;;;;16.96;63.00;99117.52;233397;1198;138890;-60
2021/09/03 22:39:11;;;;;;;19.40;10.90;;;;;;;16.91;62.98;99122.63;233944;1201;139359;-60
2021/09/03 22:44:15;;;;;;;18.10;10.70;;;;;;;16.88;63.03;99123.81;233846;1201;140312;-61
2021/09/03 22:49:18;;;;;;;20.40;12.20;;;;;;;16.89;63.37;99126.02;232192;1199;140672;-61
2021/09/03 22:54:21;;;;;;;19.30;11.50;;;;;;;16.88;63.63;99123.42;232907;1200;139739;-61
2021/09/03 22:59:25;;;;;;;18.20;11.60;;;;;;;16.91;63.69;99120.70;233972;1201;138838;-61